Aérodrome :
LOGIN :

S'inscrire | Disclaimer

   EN    FR    IT 

 










Légende :    VFR   VFR Marginal   IFR   IFR Intensif   IFR Très Intensif
Visi : 
Plafond : 
>= 8 km
>= 3000ft
5 à 8 km
1000 à 3000 ft
1500m à 5 km
500 à 1000 ft
800 à 1500m
200 à 500 ft
< 800m
< 200 ft
Symboles :   Orages  Brouillard  Fortes neiges  Fortes précipitations  Vent > 20 kt
SIGMETs :   Divers  Orages  Givrage  Turbulence  Onde Orograph.  Cendres Volcan.






- Altitude de l'aérodrome : 197 ft
- Code IATA : XOG


LFMO - Orange

DERNIER METAR :
  • 280400Z AUTO 30007KT 260V330 CAVOK 14/12 Q1019 BECMG 34015G25KT

METARs EXPIRÉS :
  • 280330Z AUTO 30010KT CAVOK 14/12 Q1019 BECMG 34015G25KT
  • 280300Z AUTO 28008KT CAVOK 14/13 Q1019 BECMG 34015G25KT
  • 280230Z AUTO 28007KT CAVOK 14/13 Q1019 BECMG 34015G25KT
  • 280200Z AUTO 30006KT 270V330 CAVOK 14/13 Q1019 BECMG 34015G25KT
  • 280130Z AUTO 30007KT 280V340 CAVOK 14/13 Q1019 BECMG 34015G25KT
  • 280100Z AUTO 31005KT CAVOK 14/13 Q1019 NOSIG
  • 280030Z AUTO 29007KT CAVOK 14/13 Q1019 NOSIG
  • 280000Z AUTO 29007KT CAVOK 14/13 Q1019 NOSIG
  • 272330Z AUTO 29008KT CAVOK 15/14 Q1019 NOSIG

TAF TAF LFMO
Valide du 28 à 03h jusqu'au 29 à 03h UTC


280200Z 2803/2903 35012KT CAVOK TX23/2813Z TN12/2803Z
BECMG 2803/2805 34015G25KT
BECMG 2901/2903 35012KT



MET'MAP, la Météo Aéronautique d'un coup d'oeil ! - Copyright ORBIFLY Décembre 2007 - Disclaimer

ORBIFLY MET'MAP TEAM :

Programmation & Développement : Alexandra Zaïnal
Sur une idée originale de : Baudouin d'Aumeries
Soutien technique & logistique : Manuel Goepfert
Assistance : Marc-Olivier Méhu




SOURCES & CREDITS :

   NOAA